Time;durP1;ratioP1;P1;durP2;ratioP2;P2;SDS_P1;SDS_P2;PMS_P1;PMS_P2;Temp;Humidity;BMP_temperature;BMP_pressure;BME280_temperature;BME280_humidity;BME280_pressure;Samples;Min_cycle;Max_cycle;Signal;HPM_P1;HPM_P2
2021/01/14 00:00:16;;;;;;;8.13;1.63;;;6.20;1.00;;;;;;5031052;28;20294;-82
2021/01/14 00:02:43;;;;;;;5.67;1.13;;;6.20;1.00;;;;;;5029949;28;20199;-82
2021/01/14 00:05:11;;;;;;;6.47;1.77;;;6.30;1.00;;;;;;5044375;28;20254;-81
2021/01/14 00:07:39;;;;;;;6.33;1.07;;;6.20;1.00;;;;;;5020932;28;20205;-80
2021/01/14 00:10:08;;;;;;;3.67;0.90;;;6.30;99.90;;;;;;5049263;28;20270;-81
2021/01/14 00:12:34;;;;;;;3.97;1.10;;;6.20;1.00;;;;;;5049536;28;20597;-80
2021/01/14 00:15:02;;;;;;;8.10;1.73;;;6.10;1.00;;;;;;5020271;28;21506;-82
2021/01/14 00:17:28;;;;;;;7.03;1.40;;;6.10;99.90;;;;;;5011135;28;20200;-82
2021/01/14 00:19:54;;;;;;;7.60;1.27;;;6.00;99.90;;;;;;5024313;28;20226;-82
2021/01/14 00:22:21;;;;;;;6.90;1.10;;;6.10;1.00;;;;;;5017755;28;20277;-81
2021/01/14 00:24:47;;;;;;;7.77;1.00;;;6.30;1.00;;;;;;5042087;28;20200;-82
2021/01/14 00:27:13;;;;;;;10.47;1.70;;;6.20;99.80;;;;;;5035377;28;20258;-80
2021/01/14 00:29:40;;;;;;;2.87;1.20;;;6.10;99.90;;;;;;5022212;28;20834;-82
2021/01/14 00:32:07;;;;;;;2.27;0.83;;;5.90;1.00;;;;;;5007054;28;20273;-82
2021/01/14 00:34:33;;;;;;;9.53;1.60;;;6.00;1.00;;;;;;5025535;28;20196;-81
2021/01/14 00:39:45;;;;;;;7.23;1.10;;;5.90;99.90;;;;;;5023459;28;20232;-81
2021/01/14 00:42:20;;;;;;;2.90;0.80;;;5.90;99.90;;;;;;5024958;28;20213;-82
2021/01/14 00:44:47;;;;;;;5.63;1.10;;;6.00;1.00;;;;;;5026349;28;20200;-82
2021/01/14 00:47:13;;;;;;;3.43;1.07;;;6.00;1.00;;;;;;5026403;28;20199;-83
2021/01/14 00:49:40;;;;;;;9.50;1.10;;;6.20;99.90;;;;;;5054519;28;20266;-83
2021/01/14 00:52:10;;;;;;;6.10;1.33;;;6.20;1.00;;;;;;5035607;28;20254;-82
2021/01/14 00:54:40;;;;;;;2.70;1.20;;;6.30;99.90;;;;;;5038163;28;20256;-80
2021/01/14 00:57:08;;;;;;;9.80;1.23;;;6.20;1.00;;;;;;5052291;28;20228;-82
2021/01/14 00:59:37;;;;;;;5.83;1.33;;;6.10;1.00;;;;;;5056719;28;20192;-82
2021/01/14 01:02:07;;;;;;;4.17;1.10;;;6.10;99.90;;;;;;5019781;28;20714;-81
2021/01/14 01:04:33;;;;;;;6.67;1.30;;;6.00;1.00;;;;;;5035746;28;20213;-81
2021/01/14 01:06:59;;;;;;;7.07;1.10;;;6.00;1.00;;;;;;5019514;28;20298;-82
2021/01/14 01:09:26;;;;;;;7.20;1.30;;;6.00;99.90;;;;;;5024076;28;20196;-80
2021/01/14 01:11:52;;;;;;;3.37;0.80;;;6.00;1.00;;;;;;5012578;28;20348;-81
2021/01/14 01:14:18;;;;;;;9.27;1.33;;;6.00;1.00;;;;;;5056140;28;20275;-81
2021/01/14 01:16:45;;;;;;;4.80;0.90;;;5.90;1.00;;;;;;5019130;28;20275;-80
2021/01/14 01:19:11;;;;;;;6.03;0.90;;;5.90;1.00;;;;;;5022952;28;20197;-81
2021/01/14 01:21:42;;;;;;;8.27;0.83;;;5.90;1.00;;;;;;5014276;28;20270;-80
2021/01/14 01:24:09;;;;;;;7.37;1.30;;;5.90;1.00;;;;;;5042280;28;20238;-81
2021/01/14 01:26:36;;;;;;;4.80;0.80;;;5.80;99.90;;;;;;5037917;28;20200;-81
2021/01/14 01:29:02;;;;;;;3.60;1.10;;;5.70;1.00;;;;;;5027258;28;20212;-81
2021/01/14 01:31:29;;;;;;;5.17;0.97;;;5.70;1.00;;;;;;5008208;28;20240;-81
2021/01/14 01:33:55;;;;;;;1.37;0.60;;;5.80;99.90;;;;;;5059414;28;20200;-82
2021/01/14 01:36:22;;;;;;;9.07;1.13;;;5.70;99.90;;;;;;5044837;28;20606;-81
2021/01/14 01:38:48;;;;;;;4.13;1.20;;;5.50;99.90;;;;;;5045601;28;20250;-81
2021/01/14 01:41:15;;;;;;;5.53;1.10;;;5.50;99.90;;;;;;5021683;28;20199;-81
2021/01/14 01:43:42;;;;;;;4.53;0.70;;;5.40;1.00;;;;;;5023808;28;20666;-81
2021/01/14 01:46:23;;;;;;;3.63;0.60;;;5.40;1.00;;;;;;5039315;28;20204;-81
2021/01/14 01:48:49;;;;;;;3.47;0.87;;;5.60;1.00;;;;;;5024277;28;20257;-81
2021/01/14 01:51:16;;;;;;;5.43;0.93;;;5.60;99.90;;;;;;5037555;28;20659;-81
2021/01/14 01:53:42;;;;;;;3.70;1.00;;;5.60;1.00;;;;;;5037205;28;21161;-81
2021/01/14 01:56:09;;;;;;;3.33;1.07;;;5.50;24.10;;;;;;5025799;28;20330;-81
2021/01/14 01:58:39;;;;;;;2.20;0.50;;;5.50;1.00;;;;;;5031629;28;20356;-81
2021/01/14 02:01:09;;;;;;;2.53;0.70;;;5.50;1.00;;;;;;5027639;28;20203;-80
2021/01/14 02:03:35;;;;;;;7.73;0.83;;;5.70;1.00;;;;;;5057758;28;20257;-81
2021/01/14 02:06:03;;;;;;;2.97;0.73;;;5.70;1.00;;;;;;5032375;28;20200;-81
2021/01/14 02:08:42;;;;;;;3.60;0.70;;;5.70;1.00;;;;;;5035177;28;20629;-81
2021/01/14 02:11:14;;;;;;;7.50;1.00;;;5.70;1.00;;;;;;5061107;28;20306;-80
2021/01/14 02:14:12;;;;;;;2.70;0.60;;;5.70;1.00;;;;;;5034091;28;20276;-80
2021/01/14 02:16:39;;;;;;;8.77;1.43;;;5.70;1.00;;;;;;5044473;28;20295;-81
2021/01/14 02:19:17;;;;;;;2.13;0.67;;;5.50;1.00;;;;;;5024646;28;20801;-81
2021/01/14 02:21:47;;;;;;;5.67;0.57;;;5.50;1.00;;;;;;5045903;28;20281;-82
2021/01/14 02:24:33;;;;;;;3.50;0.60;;;5.70;1.00;;;;;;5041833;28;20205;-81
2021/01/14 02:27:00;;;;;;;2.00;0.60;;;5.70;1.00;;;;;;5032428;28;20241;-81
2021/01/14 02:29:27;;;;;;;4.80;0.77;;;5.90;1.00;;;;;;5037256;28;20374;-82
2021/01/14 02:31:54;;;;;;;3.43;0.80;;;5.80;1.00;;;;;;5063621;28;20682;-80
2021/01/14 02:34:20;;;;;;;3.93;0.83;;;5.80;1.00;;;;;;5015476;28;20348;-81
2021/01/14 02:36:46;;;;;;;3.27;0.83;;;5.80;1.00;;;;;;5038523;28;20298;-80
2021/01/14 02:39:13;;;;;;;6.33;1.10;;;5.70;1.00;;;;;;5024443;28;21796;-80
2021/01/14 02:41:39;;;;;;;5.37;0.80;;;5.70;1.00;;;;;;5013495;28;20232;-81
2021/01/14 02:44:05;;;;;;;1.53;0.53;;;5.70;1.00;;;;;;5011679;28;20654;-80
2021/01/14 02:46:32;;;;;;;3.43;0.77;;;5.80;1.00;;;;;;5040974;28;20196;-80
2021/01/14 02:49:06;;;;;;;4.90;0.70;;;5.70;1.00;;;;;;5042641;28;20608;-81
2021/01/14 02:51:41;;;;;;;4.40;0.70;;;5.60;1.00;;;;;;5015136;28;20234;-81
2021/01/14 02:54:08;;;;;;;4.53;1.10;;;5.70;99.90;;;;;;5036594;28;20253;-81
2021/01/14 02:56:37;;;;;;;3.00;0.87;;;5.70;99.90;;;;;;5028497;28;20211;-81
2021/01/14 02:59:05;;;;;;;2.70;0.80;;;5.70;99.90;;;;;;5040588;28;20259;-81
2021/01/14 03:01:32;;;;;;;4.73;1.20;;;5.80;99.90;;;;;;5017028;28;20625;-83
2021/01/14 03:03:59;;;;;;;5.40;0.50;;;5.70;99.90;;;;;;5054815;28;20618;-82
2021/01/14 03:06:25;;;;;;;4.10;0.83;;;5.70;1.00;;;;;;5015254;28;20345;-83
2021/01/14 03:08:51;;;;;;;4.67;0.80;;;5.70;1.00;;;;;;5026817;28;20278;-83
2021/01/14 03:11:27;;;;;;;4.27;1.17;;;5.60;1.00;;;;;;5016301;28;20223;-82
2021/01/14 03:13:54;;;;;;;6.23;0.87;;;5.60;83.90;;;;;;5021208;28;20207;-82
2021/01/14 03:16:22;;;;;;;5.50;0.63;;;5.70;1.00;;;;;;5052417;28;20246;-80
2021/01/14 03:18:48;;;;;;;5.47;0.73;;;5.70;1.00;;;;;;5026033;28;20218;-82
2021/01/14 03:21:22;;;;;;;5.60;0.80;;;5.70;1.00;;;;;;5030220;28;20233;-81
2021/01/14 03:23:49;;;;;;;4.43;1.07;;;5.60;1.00;;;;;;5045744;28;20200;-82
2021/01/14 03:26:16;;;;;;;2.53;0.50;;;5.70;1.00;;;;;;5020828;28;20205;-82
2021/01/14 03:28:43;;;;;;;8.27;1.20;;;5.60;1.00;;;;;;5011283;28;20952;-81
2021/01/14 03:31:10;;;;;;;6.30;2.27;;;5.70;1.00;;;;;;5026074;28;20221;-82
2021/01/14 03:33:38;;;;;;;9.20;0.77;;;5.60;99.90;;;;;;5027379;28;20200;-82
2021/01/14 03:36:06;;;;;;;4.87;0.80;;;5.60;1.00;;;;;;5024808;28;20196;-83
2021/01/14 03:38:34;;;;;;;3.70;1.17;;;5.50;1.00;;;;;;5038774;28;20196;-82
2021/01/14 03:41:00;;;;;;;5.10;0.90;;;5.50;1.00;;;;;;5057471;28;20213;-81
2021/01/14 03:43:27;;;;;;;4.03;0.63;;;5.60;99.90;;;;;;5042369;28;21025;-82
2021/01/14 03:45:54;;;;;;;2.50;0.67;;;5.60;1.00;;;;;;5011440;28;20283;-81
2021/01/14 03:48:20;;;;;;;4.43;1.23;;;5.60;99.90;;;;;;5044471;28;20202;-81
2021/01/14 03:50:46;;;;;;;2.93;0.70;;;5.60;99.90;;;;;;5021039;28;20615;-82
2021/01/14 03:53:12;;;;;;;6.87;1.17;;;5.50;99.90;;;;;;5024302;28;20298;-82
2021/01/14 03:55:39;;;;;;;2.90;0.97;;;5.50;99.90;;;;;;5033377;28;20201;-82
2021/01/14 03:58:06;;;;;;;2.40;0.90;;;5.40;99.90;;;;;;5028534;28;20210;-82
2021/01/14 04:00:33;;;;;;;10.87;1.07;;;5.40;1.00;;;;;;5060921;28;20199;-82
2021/01/14 04:03:00;;;;;;;3.93;1.27;;;5.40;1.00;;;;;;5011948;28;20605;-82
2021/01/14 04:05:26;;;;;;;2.60;1.00;;;5.40;1.00;;;;;;5013826;28;20264;-80
2021/01/14 04:07:54;;;;;;;8.83;0.97;;;5.40;1.00;;;;;;5056194;28;20200;-81
2021/01/14 04:10:20;;;;;;;3.63;1.03;;;5.50;99.90;;;;;;5013917;28;20196;-81
2021/01/14 04:12:46;;;;;;;5.80;1.43;;;5.40;99.90;;;;;;5013410;28;20848;-81
2021/01/14 04:15:13;;;;;;;1.73;0.73;;;5.40;1.00;;;;;;5041048;28;20209;-80
2021/01/14 04:17:39;;;;;;;11.97;1.27;;;5.50;1.00;;;;;;5042403;28;20558;-81
2021/01/14 04:20:06;;;;;;;4.80;1.30;;;5.50;89.50;;;;;;5009567;28;20358;-81
2021/01/14 04:22:33;;;;;;;4.43;1.23;;;5.60;1.00;;;;;;5031946;28;20242;-81
2021/01/14 04:25:02;;;;;;;4.97;1.07;;;5.50;1.00;;;;;;5022155;28;20206;-81
2021/01/14 04:27:30;;;;;;;7.20;1.80;;;5.50;99.90;;;;;;5039665;28;20203;-80
2021/01/14 04:29:56;;;;;;;4.30;1.40;;;5.60;1.00;;;;;;5033861;28;20206;-81
2021/01/14 04:32:22;;;;;;;3.13;1.10;;;5.50;99.90;;;;;;5012700;28;20205;-81
2021/01/14 04:34:49;;;;;;;3.10;0.90;;;5.50;99.90;;;;;;5032014;28;20199;-81
2021/01/14 04:37:15;;;;;;;4.37;0.90;;;5.50;99.90;;;;;;5023069;28;20263;-81
2021/01/14 04:39:41;;;;;;;4.33;1.00;;;5.60;99.90;;;;;;5022765;28;20243;-81
2021/01/14 04:42:11;;;;;;;7.67;0.80;;;5.70;99.90;;;;;;5030717;28;20205;-81
2021/01/14 04:44:37;;;;;;;3.73;1.17;;;5.70;24.70;;;;;;5031393;28;21002;-81
2021/01/14 04:47:12;;;;;;;5.40;1.30;;;5.50;99.90;;;;;;5019714;28;20262;-81
2021/01/14 04:49:38;;;;;;;1.80;0.67;;;5.60;19.40;;;;;;5020885;28;20347;-80
2021/01/14 04:52:05;;;;;;;8.77;1.60;;;5.50;99.90;;;;;;5021430;28;20308;-81
2021/01/14 04:54:34;;;;;;;3.80;0.90;;;5.50;99.90;;;;;;5043278;28;20227;-80
2021/01/14 04:57:18;;;;;;;2.17;1.70;;;5.30;12.70;;;;;;5050537;28;20688;-81
2021/01/14 04:59:51;;;;;;;4.73;1.20;;;5.30;99.90;;;;;;5045472;28;20606;-82
2021/01/14 05:02:22;;;;;;;7.40;1.20;;;5.30;1.00;;;;;;5026310;28;20193;-81
2021/01/14 05:04:50;;;;;;;2.43;0.70;;;5.40;1.00;;;;;;5028407;28;20200;-81
2021/01/14 05:07:30;;;;;;;4.27;1.17;;;5.40;1.00;;;;;;5020713;28;20298;-81
2021/01/14 05:10:03;;;;;;;5.63;0.93;;;5.30;1.00;;;;;;5034790;28;20206;-81
2021/01/14 05:12:32;;;;;;;3.50;0.83;;;5.40;1.00;;;;;;5056895;28;20751;-83
2021/01/14 05:14:59;;;;;;;1.80;0.80;;;5.50;1.00;;;;;;5059302;28;20306;-80
2021/01/14 05:17:27;;;;;;;3.07;0.73;;;5.40;1.00;;;;;;5043712;28;21058;-81
2021/01/14 05:19:56;;;;;;;2.60;0.57;;;5.40;1.00;;;;;;5037823;28;20198;-83
2021/01/14 05:22:27;;;;;;;1.73;0.90;;;5.30;1.00;;;;;;5043636;28;20241;-81
2021/01/14 05:25:10;;;;;;;6.23;1.10;;;5.40;1.00;;;;;;5041323;28;20258;-81
2021/01/14 05:27:37;;;;;;;2.13;0.77;;;5.40;1.00;;;;;;5037939;28;20203;-82
2021/01/14 05:30:06;;;;;;;4.43;1.07;;;5.40;1.00;;;;;;5041033;28;20243;-81
2021/01/14 05:32:33;;;;;;;3.80;0.57;;;5.40;1.00;;;;;;5022517;28;20978;-80
2021/01/14 05:35:00;;;;;;;3.87;1.00;;;5.40;1.00;;;;;;5038461;28;20198;-82
2021/01/14 05:37:27;;;;;;;3.03;0.60;;;5.40;1.00;;;;;;5021878;28;20251;-81
2021/01/14 05:39:53;;;;;;;7.70;1.50;;;5.40;1.00;;;;;;5052147;28;20486;-82
2021/01/14 05:42:20;;;;;;;3.27;0.70;;;5.40;1.00;;;;;;5017806;28;20213;-81
2021/01/14 05:44:46;;;;;;;5.47;1.70;;;5.40;1.00;;;;;;5059647;28;20218;-79
2021/01/14 05:47:23;;;;;;;2.03;0.70;;;5.40;1.00;;;;;;5025260;28;20201;-81
2021/01/14 05:50:05;;;;;;;5.67;1.30;;;5.30;1.00;;;;;;5040206;28;20206;-79
2021/01/14 05:52:33;;;;;;;3.93;1.00;;;5.30;1.00;;;;;;5028471;28;20219;-80
2021/01/14 05:55:07;;;;;;;4.40;0.90;;;5.20;1.00;;;;;;5016857;28;20202;-80
2021/01/14 05:57:40;;;;;;;2.23;1.00;;;5.20;1.00;;;;;;5035694;28;20211;-80
2021/01/14 06:00:17;;;;;;;2.50;0.87;;;5.30;1.00;;;;;;5038242;28;20197;-80
2021/01/14 06:02:44;;;;;;;2.37;0.73;;;5.30;1.00;;;;;;5007233;28;20722;-81
2021/01/14 06:05:32;;;;;;;6.47;2.40;;;5.30;1.00;;;;;;5036672;28;20201;-80
2021/01/14 06:08:04;;;;;;;3.73;0.87;;;5.30;99.90;;;;;;5032694;28;20284;-79
2021/01/14 06:10:31;;;;;;;4.20;0.80;;;5.30;1.00;;;;;;5024153;28;20516;-79
2021/01/14 06:12:58;;;;;;;4.87;1.07;;;5.30;1.00;;;;;;5013368;28;20282;-80
2021/01/14 06:15:24;;;;;;;2.77;0.63;;;5.30;1.00;;;;;;5035869;28;20205;-80
2021/01/14 06:17:53;;;;;;;5.47;1.37;;;5.40;1.00;;;;;;5028063;28;20763;-80
2021/01/14 06:20:19;;;;;;;1.27;0.77;;;5.30;1.00;;;;;;5019666;28;20244;-80
2021/01/14 06:22:45;;;;;;;4.97;0.97;;;5.40;1.00;;;;;;5037478;28;20200;-80
2021/01/14 06:25:13;;;;;;;7.10;1.10;;;5.30;1.00;;;;;;5018468;28;20210;-80
2021/01/14 06:27:54;;;;;;;4.27;1.00;;;5.20;1.00;;;;;;5039490;28;20205;-80
2021/01/14 06:30:20;;;;;;;5.00;1.40;;;5.20;1.00;;;;;;5029318;28;20208;-79
2021/01/14 06:33:01;;;;;;;6.53;1.13;;;5.20;1.00;;;;;;5032840;28;20274;-79
2021/01/14 06:35:28;;;;;;;3.37;1.47;;;5.10;1.00;;;;;;5045605;28;20246;-79
2021/01/14 06:37:55;;;;;;;3.40;1.17;;;5.10;1.00;;;;;;5021803;28;20205;-81
2021/01/14 06:40:28;;;;;;;5.57;1.10;;;5.00;1.00;;;;;;5057790;28;20239;-79
2021/01/14 06:42:57;;;;;;;3.73;1.00;;;5.00;1.00;;;;;;5053503;28;20523;-79
2021/01/14 06:45:31;;;;;;;3.20;1.23;;;5.00;1.00;;;;;;5021694;28;20791;-80
2021/01/14 06:48:03;;;;;;;5.13;1.27;;;5.00;1.00;;;;;;5034001;28;20231;-81
2021/01/14 06:50:34;;;;;;;4.23;0.97;;;5.00;1.00;;;;;;5035543;28;20212;-80
2021/01/14 06:53:06;;;;;;;3.07;1.27;;;5.00;1.00;;;;;;5041634;28;20691;-77
2021/01/14 06:55:33;;;;;;;6.20;1.00;;;5.00;1.00;;;;;;5046024;28;20205;-78
2021/01/14 06:58:12;;;;;;;4.97;1.00;;;4.90;1.00;;;;;;5035934;28;20656;-82
2021/01/14 07:00:41;;;;;;;4.43;1.30;;;4.80;1.00;;;;;;5032106;28;20201;-81
2021/01/14 07:03:16;;;;;;;3.30;1.30;;;4.80;1.00;;;;;;5024177;28;20192;-81
2021/01/14 07:05:55;;;;;;;8.13;1.10;;;4.80;1.00;;;;;;5046981;28;20196;-80
2021/01/14 07:08:52;;;;;;;1.60;0.80;;;4.70;1.00;;;;;;5040755;28;20323;-78
2021/01/14 07:11:21;;;;;;;2.70;0.90;;;4.80;1.00;;;;;;5044743;28;20215;-78
2021/01/14 07:13:51;;;;;;;3.27;1.17;;;4.60;97.20;;;;;;5022070;28;20200;-78
2021/01/14 07:16:20;;;;;;;5.57;1.10;;;4.60;99.90;;;;;;5037884;28;20197;-78
2021/01/14 07:18:48;;;;;;;1.47;0.80;;;4.60;99.90;;;;;;5025405;28;20193;-78
2021/01/14 07:21:37;;;;;;;3.00;0.80;;;4.60;99.90;;;;;;5054847;28;20293;-79
2021/01/14 07:24:18;;;;;;;4.23;1.13;;;4.70;1.00;;;;;;5040016;28;20201;-78
2021/01/14 07:26:46;;;;;;;6.30;1.30;;;4.50;99.90;;;;;;5056736;28;20205;-79
2021/01/14 07:29:15;;;;;;;4.10;1.40;;;4.60;1.00;;;;;;5043759;28;20204;-77
2021/01/14 07:31:50;;;;;;;6.07;1.20;;;4.60;92.60;;;;;;5030372;28;20278;-77
2021/01/14 07:34:37;;;;;;;5.60;0.87;;;4.60;1.00;;;;;;5030835;28;20200;-77
2021/01/14 07:37:13;;;;;;;5.13;1.17;;;4.60;1.00;;;;;;5026765;28;20601;-78
2021/01/14 07:39:57;;;;;;;1.50;0.90;;;4.60;98.70;;;;;;5043315;28;20289;-78
2021/01/14 07:42:27;;;;;;;5.47;1.70;;;4.60;1.00;;;;;;5028269;28;20288;-77
2021/01/14 07:44:58;;;;;;;0.80;0.60;;;4.40;99.90;;;;;;5039174;28;20593;-78
2021/01/14 07:47:38;;;;;;;3.03;1.00;;;4.30;99.90;;;;;;5044846;28;20215;-78
2021/01/14 07:50:24;;;;;;;3.03;1.17;;;4.20;99.90;;;;;;5042064;28;20214;-77
2021/01/14 07:52:52;;;;;;;3.77;1.10;;;4.20;99.90;;;;;;5041283;28;20243;-78
2021/01/14 07:55:32;;;;;;;5.17;1.00;;;4.20;1.00;;;;;;5031475;28;20192;-78
2021/01/14 08:01:08;;;;;;;2.60;1.20;;;4.10;1.00;;;;;;5044612;28;20195;-79
2021/01/14 08:03:39;;;;;;;7.53;1.17;;;4.10;1.00;;;;;;5030966;28;20202;-79
2021/01/14 08:06:42;;;;;;;5.40;1.53;;;4.20;1.00;;;;;;5015923;28;20207;-78
2021/01/14 08:09:10;;;;;;;3.17;0.80;;;4.20;1.00;;;;;;5021758;28;20287;-77
2021/01/14 08:11:42;;;;;;;4.53;1.03;;;4.10;1.00;;;;;;5035054;28;20212;-79
2021/01/14 08:14:22;;;;;;;4.17;1.10;;;4.10;1.00;;;;;;5044429;28;20203;-80
2021/01/14 08:16:50;;;;;;;4.67;1.40;;;4.20;99.90;;;;;;5051970;28;20203;-81
2021/01/14 08:19:28;;;;;;;5.40;0.90;;;4.10;99.90;;;;;;5023543;28;20307;-80
2021/01/14 08:21:57;;;;;;;2.00;1.20;;;4.10;99.90;;;;;;5040549;28;20244;-81
2021/01/14 08:24:52;;;;;;;1.30;0.63;;;3.90;99.90;;;;;;5036693;28;20203;-84
2021/01/14 08:27:34;;;;;;;6.93;0.93;;;4.00;99.90;;;;;;5044006;28;20512;-80
2021/01/14 08:30:03;;;;;;;2.07;0.77;;;4.00;1.00;;;;;;5026791;28;20245;-82
2021/01/14 08:32:43;;;;;;;2.37;0.90;;;4.10;99.90;;;;;;5037394;28;20227;-81
2021/01/14 08:35:31;;;;;;;3.60;1.03;;;4.10;1.00;;;;;;5041768;28;20287;-80
2021/01/14 08:38:07;;;;;;;1.97;0.80;;;4.00;1.00;;;;;;5034451;28;20574;-81
2021/01/14 08:40:36;;;;;;;3.87;1.43;;;4.00;99.90;;;;;;5039247;28;20204;-80
2021/01/14 08:43:09;;;;;;;3.37;0.80;;;4.10;99.90;;;;;;5047086;28;20236;-81
2021/01/14 08:45:36;;;;;;;3.43;0.83;;;3.90;1.00;;;;;;5026377;28;20732;-82
2021/01/14 08:48:07;;;;;;;4.10;1.00;;;3.80;99.90;;;;;;5040490;28;20538;-78
2021/01/14 08:50:34;;;;;;;2.50;0.80;;;3.90;1.00;;;;;;5039814;28;20214;-80
2021/01/14 08:53:21;;;;;;;5.27;1.23;;;3.90;99.90;;;;;;5031513;28;20402;-80
2021/01/14 08:55:58;;;;;;;3.80;0.90;;;3.90;1.00;;;;;;5030726;28;21623;-84
2021/01/14 08:58:52;;;;;;;15.73;1.43;;;3.70;1.00;;;;;;5031275;28;20273;-80
2021/01/14 09:01:22;;;;;;;2.10;0.70;;;3.60;1.00;;;;;;5022889;28;20200;-82
2021/01/14 09:03:51;;;;;;;5.97;0.83;;;3.60;1.00;;;;;;5034008;28;20232;-82
2021/01/14 09:06:29;;;;;;;8.70;0.97;;;3.70;1.00;;;;;;5039185;28;20317;-78
2021/01/14 09:08:59;;;;;;;1.73;0.80;;;3.70;1.00;;;;;;5027030;28;20203;-83
2021/01/14 09:11:27;;;;;;;2.80;1.03;;;3.70;1.00;;;;;;5037166;28;20221;-82
2021/01/14 09:14:05;;;;;;;1.53;0.80;;;3.60;1.00;;;;;;5044431;28;20238;-82
2021/01/14 09:16:32;;;;;;;7.47;1.10;;;3.60;1.00;;;;;;5042889;28;20231;-81
2021/01/14 09:18:59;;;;;;;4.63;0.73;;;3.60;1.00;;;;;;5025893;28;21506;-80
2021/01/14 09:21:26;;;;;;;2.90;1.30;;;3.50;1.00;;;;;;5027089;28;20247;-79
2021/01/14 09:23:53;;;;;;;2.93;0.90;;;3.40;1.00;;;;;;5045182;28;20215;-82
2021/01/14 09:26:22;;;;;;;5.73;1.30;;;3.40;1.00;;;;;;5035403;28;20199;-80
2021/01/14 09:28:53;;;;;;;3.00;1.07;;;3.30;1.00;;;;;;5033870;28;20286;-81
2021/01/14 09:31:20;;;;;;;7.97;0.97;;;3.40;99.90;;;;;;5045555;28;20231;-79
2021/01/14 09:33:48;;;;;;;4.13;0.97;;;3.30;1.00;;;;;;5048296;28;20264;-81
2021/01/14 09:36:19;;;;;;;3.03;0.87;;;3.50;1.00;;;;;;5038263;28;20199;-81
2021/01/14 09:39:06;;;;;;;1.80;0.80;;;3.60;1.00;;;;;;5040160;28;20274;-80
2021/01/14 09:41:35;;;;;;;4.60;1.00;;;3.60;1.00;;;;;;5038009;28;20226;-75
2021/01/14 09:44:03;;;;;;;1.87;0.83;;;3.60;1.00;;;;;;5025542;28;20214;-82
2021/01/14 09:46:46;;;;;;;4.90;0.80;;;3.50;1.00;;;;;;5021627;28;20234;-78
2021/01/14 09:49:19;;;;;;;2.67;0.93;;;3.70;99.90;;;;;;5036604;28;20206;-80
2021/01/14 09:51:46;;;;;;;9.50;1.30;;;3.70;1.00;;;;;;5042750;28;20693;-81
2021/01/14 09:54:13;;;;;;;2.20;1.10;;;3.60;1.00;;;;;;5021083;28;20234;-80
2021/01/14 09:56:44;;;;;;;1.70;0.80;;;3.70;1.00;;;;;;5038346;28;20199;-80
2021/01/14 09:59:19;;;;;;;3.67;1.13;;;3.60;1.00;;;;;;5024066;28;20601;-79
2021/01/14 10:01:53;;;;;;;2.50;1.10;;;3.50;1.00;;;;;;5038963;28;20608;-80
2021/01/14 10:04:25;;;;;;;2.40;0.97;;;3.60;21.90;;;;;;5048216;28;20224;-80
2021/01/14 10:07:14;;;;;;;4.03;1.10;;;3.90;1.00;;;;;;5036463;28;20303;-80
2021/01/14 10:09:40;;;;;;;3.97;1.13;;;3.70;99.90;;;;;;5038507;28;20682;-78
2021/01/14 10:12:09;;;;;;;5.07;1.13;;;3.80;1.00;;;;;;5038941;28;20215;-81
2021/01/14 10:14:36;;;;;;;7.13;1.30;;;3.60;80.40;;;;;;5043037;28;20268;-81
2021/01/14 10:17:09;;;;;;;1.40;0.97;;;3.60;1.00;;;;;;5015974;28;20197;-74
2021/01/14 10:19:40;;;;;;;3.10;1.10;;;3.60;99.90;;;;;;5037937;28;20595;-80
2021/01/14 10:22:07;;;;;;;4.33;1.17;;;3.60;1.00;;;;;;5038861;28;20597;-81
2021/01/14 10:24:34;;;;;;;2.50;0.93;;;3.70;99.90;;;;;;5040496;28;20648;-74
2021/01/14 10:27:14;;;;;;;2.80;1.10;;;3.80;1.00;;;;;;5046317;28;20255;-81
2021/01/14 10:29:41;;;;;;;3.03;1.17;;;3.70;1.00;;;;;;5044853;28;20214;-81
2021/01/14 10:32:09;;;;;;;8.20;1.47;;;3.70;1.00;;;;;;5040968;28;20227;-81
2021/01/14 10:34:47;;;;;;;4.00;1.23;;;3.50;1.00;;;;;;5038642;28;20275;-76
2021/01/14 10:37:16;;;;;;;3.30;1.17;;;3.50;1.00;;;;;;5040186;28;20499;-79
2021/01/14 10:39:43;;;;;;;3.47;1.37;;;3.50;1.00;;;;;;5039163;28;20281;-77
2021/01/14 10:42:29;;;;;;;2.63;1.30;;;3.60;1.00;;;;;;5040736;28;20351;-78
2021/01/14 10:44:58;;;;;;;2.53;0.97;;;3.50;1.00;;;;;;5041021;28;20274;-82
2021/01/14 10:47:24;;;;;;;3.70;1.80;;;3.60;9.40;;;;;;5040881;28;20233;-81
2021/01/14 10:49:51;;;;;;;3.53;1.20;;;3.60;1.00;;;;;;5041131;28;20289;-77
2021/01/14 10:52:17;;;;;;;3.77;1.40;;;3.60;1.00;;;;;;5041310;28;20228;-80
2021/01/14 10:54:56;;;;;;;2.60;1.10;;;3.60;1.00;;;;;;5024336;28;20252;-79
2021/01/14 10:57:22;;;;;;;3.80;1.07;;;3.60;1.00;;;;;;5040475;28;20578;-78
2021/01/14 10:59:48;;;;;;;4.13;1.43;;;3.50;1.00;;;;;;5031767;28;20204;-79
2021/01/14 11:02:22;;;;;;;3.23;1.17;;;3.50;1.00;;;;;;5027582;28;20393;-79
2021/01/14 11:04:55;;;;;;;3.73;1.33;;;3.40;1.00;;;;;;5044092;28;20269;-80
2021/01/14 11:07:21;;;;;;;6.27;0.90;;;3.60;1.00;;;;;;5031888;28;20211;-79
2021/01/14 11:09:51;;;;;;;1.83;0.80;;;3.60;99.90;;;;;;5023175;28;20212;-79
2021/01/14 11:12:18;;;;;;;4.60;1.13;;;3.70;1.00;;;;;;5038670;28;20251;-80
2021/01/14 11:14:58;;;;;;;3.93;1.70;;;3.60;1.00;;;;;;5045756;28;20208;-77
2021/01/14 11:17:25;;;;;;;3.33;1.20;;;3.60;1.00;;;;;;5042593;28;20238;-80
2021/01/14 11:20:03;;;;;;;7.90;1.83;;;3.50;99.90;;;;;;5046176;28;20271;-80
2021/01/14 11:22:29;;;;;;;3.03;1.10;;;3.40;1.00;;;;;;5043602;28;20244;-79
2021/01/14 11:24:56;;;;;;;6.57;1.40;;;3.40;1.00;;;;;;5041307;28;20273;-78
2021/01/14 11:27:28;;;;;;;5.50;1.50;;;3.40;99.90;;;;;;5053714;28;20705;-80
2021/01/14 11:29:54;;;;;;;4.90;1.10;;;3.60;1.00;;;;;;5027295;28;20305;-78
2021/01/14 11:32:21;;;;;;;3.20;1.30;;;3.60;1.00;;;;;;5023384;28;20572;-80
2021/01/14 11:34:47;;;;;;;4.73;1.20;;;3.50;99.90;;;;;;5013138;28;20262;-76
2021/01/14 11:37:13;;;;;;;3.10;1.20;;;3.60;1.00;;;;;;5010870;28;20204;-79
2021/01/14 11:39:40;;;;;;;6.17;1.43;;;3.80;1.00;;;;;;5023668;28;20644;-80
2021/01/14 11:42:06;;;;;;;3.77;1.30;;;3.60;1.00;;;;;;5013505;28;20215;-80
2021/01/14 11:44:32;;;;;;;6.00;1.17;;;3.70;1.00;;;;;;5022231;28;20288;-78
2021/01/14 11:46:59;;;;;;;7.23;1.47;;;3.60;1.00;;;;;;5011938;28;20204;-77
2021/01/14 11:49:28;;;;;;;1.97;1.20;;;3.70;1.00;;;;;;5005921;28;20243;-77
2021/01/14 11:51:54;;;;;;;2.60;1.30;;;3.70;74.00;;;;;;5043627;28;20232;-81
2021/01/14 11:54:21;;;;;;;5.40;1.37;;;3.60;1.00;;;;;;5024013;28;20670;-78
2021/01/14 11:56:51;;;;;;;7.27;1.33;;;3.50;1.00;;;;;;5040779;28;20197;-78
2021/01/14 11:59:17;;;;;;;2.83;1.20;;;3.70;1.00;;;;;;5022906;28;20656;-77
2021/01/14 12:01:44;;;;;;;3.23;1.40;;;3.70;37.00;;;;;;5026506;28;20211;-79
2021/01/14 12:04:10;;;;;;;4.60;1.20;;;3.70;99.90;;;;;;5020889;28;20204;-79
2021/01/14 12:06:37;;;;;;;3.77;1.87;;;3.60;1.00;;;;;;5023064;28;20276;-81
2021/01/14 12:09:03;;;;;;;4.83;1.40;;;3.50;1.00;;;;;;5039544;28;20215;-80
2021/01/14 12:11:30;;;;;;;5.67;1.80;;;3.50;1.00;;;;;;5022531;28;20257;-81
2021/01/14 12:13:57;;;;;;;4.37;1.50;;;3.60;1.00;;;;;;5057310;28;21739;-76
2021/01/14 12:16:23;;;;;;;6.67;1.90;;;3.60;99.20;;;;;;5041851;28;20211;-81
2021/01/14 12:18:49;;;;;;;5.00;1.80;;;3.70;99.90;;;;;;5023745;28;20211;-80
2021/01/14 12:21:17;;;;;;;5.53;1.80;;;3.70;1.00;;;;;;5033142;28;20240;-80
2021/01/14 12:23:46;;;;;;;4.13;1.40;;;3.70;1.00;;;;;;5034775;28;20207;-75
2021/01/14 12:26:13;;;;;;;4.13;1.93;;;3.60;1.00;;;;;;5033674;28;20215;-80
2021/01/14 12:28:39;;;;;;;6.23;2.03;;;3.60;1.00;;;;;;5027436;28;20210;-81
2021/01/14 12:31:06;;;;;;;4.63;2.03;;;3.60;99.90;;;;;;5009711;28;20271;-81
2021/01/14 12:33:33;;;;;;;3.67;1.60;;;3.70;1.00;;;;;;5038956;28;20224;-80
2021/01/14 12:35:59;;;;;;;4.80;1.70;;;3.70;1.00;;;;;;5033812;28;20599;-80
2021/01/14 12:38:26;;;;;;;5.90;1.70;;;3.70;15.30;;;;;;5024635;28;20208;-80
2021/01/14 12:40:52;;;;;;;7.13;2.30;;;3.80;1.00;;;;;;5044913;28;20212;-78
2021/01/14 12:43:18;;;;;;;4.43;1.90;;;3.60;1.00;;;;;;5021379;28;20204;-80
2021/01/14 12:45:45;;;;;;;7.47;2.20;;;3.50;99.90;;;;;;5035531;28;20308;-80
2021/01/14 12:48:12;;;;;;;6.60;2.43;;;3.50;99.90;;;;;;5023575;28;20283;-80
2021/01/14 12:50:42;;;;;;;7.10;2.50;;;3.50;1.00;;;;;;5023469;28;20209;-80
2021/01/14 12:53:08;;;;;;;5.07;2.00;;;3.50;1.00;;;;;;5022109;28;20283;-80
2021/01/14 12:55:36;;;;;;;6.97;2.80;;;3.60;1.00;;;;;;5024550;28;20578;-80
2021/01/14 12:58:06;;;;;;;11.60;2.70;;;3.70;99.90;;;;;;5038672;28;20266;-80
2021/01/14 13:00:32;;;;;;;6.93;3.33;;;3.60;99.90;;;;;;5021729;28;20248;-80
2021/01/14 13:02:59;;;;;;;7.17;2.87;;;3.50;1.00;;;;;;5054821;28;20212;-79
2021/01/14 13:05:25;;;;;;;4.03;2.50;;;3.50;99.90;;;;;;5041203;28;20205;-77
2021/01/14 13:07:51;;;;;;;7.13;2.50;;;3.50;99.90;;;;;;5009453;28;20693;-79
2021/01/14 13:10:18;;;;;;;8.00;2.30;;;3.40;1.00;;;;;;5023450;28;20204;-80
2021/01/14 13:12:44;;;;;;;4.97;2.40;;;3.40;1.00;;;;;;5023724;28;20272;-79
2021/01/14 13:15:10;;;;;;;11.13;2.70;;;3.40;1.00;;;;;;5034716;28;20570;-77
2021/01/14 13:17:37;;;;;;;5.93;2.50;;;3.40;1.00;;;;;;5036146;28;20208;-81
2021/01/14 13:20:04;;;;;;;6.47;2.47;;;3.40;1.00;;;;;;5038496;28;20208;-80
2021/01/14 13:22:30;;;;;;;8.00;3.10;;;3.30;1.00;;;;;;5013464;28;20267;-77
2021/01/14 13:24:57;;;;;;;9.37;3.07;;;3.20;1.00;;;;;;5008423;28;20201;-73